CheckWX is a tool to help pilots better visualize weather data.  It is not intended as a substitute for an official pre-flight weather briefing.

13:21:36 UTC

KSBA TAF
Santa Barbara Municipal Airport
Santa Barbara, California, USA
KSBA 191145Z 1912/2012 VRB03KT P6SM SKC FM191400 VRB03KT P6SM BKN012 FM191700 17007KT P6SM SKC FM192100 23008KT P6SM SKC FM200200 VRB03KT P6SM SKC

Sep-19@
12:00 UTC

Sep-19 @ 12:00 UTC

Sep-19@
14:00 UTC

Sep-19 @ 14:00 UTC

KSBA 191145Z 1912/2012 VRB03KT P6SM SKC
Wind
  • Variable at 3 KTS
Cloud Levels
  • Clear skies

Sep-19@
14:00 UTC

Sep-19 @ 14:00 UTC

Sep-19@
17:00 UTC

Sep-19 @ 17:00 UTC

FM191400 VRB03KT P6SM BKN012

From

From Standard forecast or significant change

Wind
  • Variable at 3 KTS
Cloud Levels
  • Broken at 1,200' AGL

Sep-19@
17:00 UTC

Sep-19 @ 17:00 UTC

Sep-19@
21:00 UTC

Sep-19 @ 21:00 UTC

FM191700 17007KT P6SM SKC

From

From Standard forecast or significant change

Wind
  • 170° at 7 KTS
Cloud Levels
  • Clear skies

Sep-19@
21:00 UTC

Sep-19 @ 21:00 UTC

Sep-20@
02:00 UTC

Sep-20 @ 02:00 UTC

FM192100 23008KT P6SM SKC

From

From Standard forecast or significant change

Wind
  • 230° at 8 KTS
Cloud Levels
  • Clear skies

Sep-20@
02:00 UTC

Sep-20 @ 02:00 UTC

Sep-20@
12:00 UTC

Sep-20 @ 12:00 UTC

FM200200 VRB03KT P6SM SKC

From

From Standard forecast or significant change

Wind
  • Variable at 3 KTS
Cloud Levels
  • Clear skies